Time;durP1;ratioP1;P1;durP2;ratioP2;P2;SDS_P1;SDS_P2;PMS_P1;PMS_P2;Temp;Humidity;BMP_temperature;BMP_pressure;BME280_temperature;BME280_humidity;BME280_pressure;Samples;Min_cycle;Max_cycle;Signal;HPM_P1;HPM_P2
2023/07/11 00:02:01;;;;;;;7.40;4.22;;;;;;;19.98;95.07;96203.66;5041711;28;24454;-75
2023/07/11 00:04:28;;;;;;;7.38;4.50;;;;;;;20.00;95.70;96198.25;5030098;28;24429;-75
2023/07/11 00:06:54;;;;;;;5.47;4.03;;;;;;;19.94;96.02;96204.91;5037542;28;24527;-75
2023/07/11 00:09:21;;;;;;;7.57;3.70;;;;;;;19.80;97.36;96198.31;5024522;28;24444;-75
2023/07/11 00:11:48;;;;;;;6.80;4.00;;;;;;;19.79;97.00;96194.03;5040696;28;24442;-74
2023/07/11 00:14:15;;;;;;;5.30;3.92;;;;;;;19.73;97.79;96196.41;5034029;28;24452;-75
2023/07/11 00:16:42;;;;;;;6.50;3.83;;;;;;;19.75;97.24;96191.81;5033420;28;25006;-75
2023/07/11 00:19:10;;;;;;;17.10;4.72;;;;;;;19.63;98.50;96192.97;5035560;28;24440;-74
2023/07/11 00:21:36;;;;;;;6.20;4.40;;;;;;;19.62;98.74;96188.66;5027852;28;24854;-74
2023/07/11 00:24:04;;;;;;;6.45;4.93;;;;;;;19.34;100.00;96189.38;5034985;28;24981;-74
2023/07/11 00:26:30;;;;;;;7.63;4.72;;;;;;;19.29;100.00;96188.16;5032440;28;24494;-76
2023/07/11 00:29:01;;;;;;;6.68;4.47;;;;;;;19.40;100.00;96185.38;5031874;28;24462;-76
2023/07/11 00:31:29;;;;;;;8.05;4.40;;;;;;;19.41;100.00;96188.84;5033330;28;24431;-75
2023/07/11 00:33:55;;;;;;;6.30;4.13;;;;;;;19.37;100.00;96182.22;5030072;28;24985;-76
2023/07/11 00:36:22;;;;;;;6.73;4.57;;;;;;;19.46;100.00;96184.78;5022011;28;24467;-75
2023/07/11 00:38:48;;;;;;;5.22;4.30;;;;;;;19.57;99.92;96174.13;5022900;28;24548;-76
2023/07/11 00:41:15;;;;;;;4.55;4.00;;;;;;;19.45;100.00;96172.66;5036544;28;24505;-76
2023/07/11 00:43:41;;;;;;;6.97;4.30;;;;;;;19.45;100.00;96171.81;5030781;28;24807;-76
2023/07/11 00:46:14;;;;;;;4.88;3.90;;;;;;;19.48;100.00;96177.63;5029967;28;24468;-76
2023/07/11 00:48:47;;;;;;;5.30;3.90;;;;;;;19.40;100.00;96176.69;5025356;28;24448;-75
2023/07/11 00:51:19;;;;;;;5.28;4.00;;;;;;;19.35;100.00;96171.81;5029559;28;24456;-76
2023/07/11 00:53:46;;;;;;;7.07;4.32;;;;;;;19.28;100.00;96175.97;5029339;28;24458;-76
2023/07/11 00:56:18;;;;;;;5.07;4.28;;;;;;;19.28;100.00;96178.59;5030883;28;24518;-76
2023/07/11 00:58:46;;;;;;;4.47;3.90;;;;;;;19.21;100.00;96175.72;5027749;28;24447;-75
2023/07/11 01:01:14;;;;;;;6.85;4.53;;;;;;;19.18;100.00;96168.13;5030572;28;24490;-76
2023/07/11 01:03:43;;;;;;;5.50;3.97;;;;;;;19.16;100.00;96177.94;5039369;28;24509;-75
2023/07/11 01:06:15;;;;;;;4.35;3.95;;;;;;;19.19;100.00;96172.41;5033228;28;25001;-76
2023/07/11 01:08:43;;;;;;;5.72;3.72;;;;;;;19.26;100.00;96173.50;5031394;28;24486;-76
2023/07/11 01:11:09;;;;;;;5.22;3.65;;;;;;;19.32;100.00;96164.25;5032307;28;24439;-76
2023/07/11 01:13:36;;;;;;;4.97;3.70;;;;;;;19.32;100.00;96164.25;5039022;28;24443;-77
2023/07/11 01:16:02;;;;;;;6.73;4.37;;;;;;;19.37;100.00;96169.91;5045951;28;24502;-76
2023/07/11 01:18:29;;;;;;;4.32;3.92;;;;;;;19.40;100.00;96160.91;5036758;28;24823;-76
2023/07/11 01:20:57;;;;;;;5.60;3.50;;;;;;;19.37;100.00;96167.28;5032272;28;24835;-75
2023/07/11 01:23:25;;;;;;;6.57;4.55;;;;;;;19.39;100.00;96156.63;5040888;28;24444;-76
2023/07/11 01:25:59;;;;;;;6.05;3.90;;;;;;;19.45;100.00;96156.88;5023920;28;24503;-75
2023/07/11 01:28:26;;;;;;;4.90;3.60;;;;;;;19.48;100.00;96151.34;5035762;28;25000;-75
2023/07/11 01:30:52;;;;;;;4.45;3.83;;;;;;;19.44;100.00;96144.72;5028968;28;25050;-77
2023/07/11 01:33:19;;;;;;;6.90;3.90;;;;;;;19.43;99.52;96140.44;5041211;28;24816;-76
2023/07/11 01:35:45;;;;;;;5.40;3.95;;;;;;;19.19;99.79;96140.06;5029771;28;24458;-75
2023/07/11 01:38:12;;;;;;;7.55;3.88;;;;;;;18.99;100.00;96141.91;5031710;28;24435;-75
2023/07/11 01:40:39;;;;;;;5.25;3.95;;;;;;;18.74;100.00;96141.47;5031279;28;25490;-77
2023/07/11 01:43:06;;;;;;;4.97;4.10;;;;;;;18.60;100.00;96141.84;5039107;28;24427;-76
2023/07/11 01:45:33;;;;;;;6.20;4.35;;;;;;;18.55;100.00;96137.00;5033354;28;24435;-76
2023/07/11 01:47:59;;;;;;;5.38;4.10;;;;;;;18.60;100.00;96140.03;5025920;28;24802;-74
2023/07/11 01:50:26;;;;;;;5.82;4.13;;;;;;;18.43;100.00;96135.47;5032223;28;24446;-75
2023/07/11 01:52:52;;;;;;;4.82;4.13;;;;;;;18.35;100.00;96136.16;5032617;28;24443;-76
2023/07/11 01:55:19;;;;;;;6.00;4.10;;;;;;;18.34;100.00;96134.47;5038652;28;24854;-75
2023/07/11 01:57:46;;;;;;;4.70;4.17;;;;;;;18.25;100.00;96134.47;5033636;28;24809;-77
2023/07/11 02:00:14;;;;;;;5.73;4.17;;;;;;;18.12;100.00;96126.84;5041433;28;25130;-76
2023/07/11 02:02:41;;;;;;;7.78;4.78;;;;;;;18.09;100.00;96117.44;5029046;28;24485;-76
2023/07/11 02:05:08;;;;;;;4.97;4.10;;;;;;;18.11;100.00;96122.56;5040047;28;24438;-76
2023/07/11 02:07:35;;;;;;;5.53;4.25;;;;;;;18.07;100.00;96129.88;5031946;28;24826;-76
2023/07/11 02:10:01;;;;;;;4.55;3.88;;;;;;;18.08;100.00;96120.22;5031098;28;24431;-76
2023/07/11 02:12:27;;;;;;;4.50;4.05;;;;;;;18.10;100.00;96126.16;5032387;28;24992;-76
2023/07/11 02:14:55;;;;;;;6.47;4.30;;;;;;;18.17;100.00;96122.03;5032205;28;24451;-76
2023/07/11 02:17:22;;;;;;;5.85;4.13;;;;;;;18.27;100.00;96116.81;5034595;28;24973;-76
2023/07/11 02:19:48;;;;;;;6.18;4.05;;;;;;;18.33;100.00;96117.09;5023369;28;24941;-76
2023/07/11 02:22:14;;;;;;;4.15;3.75;;;;;;;18.35;100.00;96115.19;5025249;28;24466;-74
2023/07/11 02:24:41;;;;;;;4.00;3.60;;;;;;;18.35;100.00;96116.94;5030901;28;24431;-75
2023/07/11 02:27:08;;;;;;;5.00;4.10;;;;;;;18.38;100.00;96114.06;5023082;28;24949;-76
2023/07/11 02:29:35;;;;;;;4.88;4.22;;;;;;;18.41;100.00;96100.69;5034211;28;24521;-74
2023/07/11 02:32:03;;;;;;;4.20;3.73;;;;;;;18.42;100.00;96102.34;5025166;28;24439;-75
2023/07/11 02:34:29;;;;;;;4.57;3.80;;;;;;;18.25;100.00;96103.00;5033738;28;25039;-75
2023/07/11 02:36:56;;;;;;;7.07;4.00;;;;;;;18.16;100.00;96099.38;5024263;28;24442;-76
2023/07/11 02:39:22;;;;;;;4.57;4.05;;;;;;;17.98;100.00;96099.22;5028999;28;24436;-76
2023/07/11 02:41:49;;;;;;;4.45;4.05;;;;;;;17.80;100.00;96099.03;5024741;28;24916;-76
2023/07/11 02:44:15;;;;;;;5.23;4.07;;;;;;;17.85;100.00;96103.88;5026780;28;24486;-75
2023/07/11 02:46:42;;;;;;;5.13;3.70;;;;;;;17.78;100.00;96098.31;5030216;28;24581;-76
2023/07/11 02:49:12;;;;;;;4.60;3.90;;;;;;;17.80;100.00;96093.81;5027649;28;25040;-76
2023/07/11 02:51:39;;;;;;;4.25;3.85;;;;;;;17.79;100.00;96096.53;5025803;28;24462;-76
2023/07/11 02:54:06;;;;;;;7.03;4.45;;;;;;;17.59;100.00;96090.38;5031782;28;24479;-76
2023/07/11 02:56:32;;;;;;;6.82;4.22;;;;;;;17.59;100.00;96087.75;5032065;28;24870;-76
2023/07/11 02:59:00;;;;;;;6.15;4.28;;;;;;;17.60;100.00;96089.41;5036320;28;24817;-74
2023/07/11 03:01:27;;;;;;;4.72;4.00;;;;;;;17.65;100.00;96090.69;5028460;28;24447;-76
2023/07/11 03:03:54;;;;;;;4.32;3.90;;;;;;;17.62;100.00;96083.06;5018920;28;25008;-76
2023/07/11 03:06:22;;;;;;;6.60;4.25;;;;;;;17.57;100.00;96080.00;5029904;28;24451;-76
2023/07/11 03:08:48;;;;;;;7.88;4.18;;;;;;;17.59;100.00;96077.28;5031020;28;24855;-75
2023/07/11 03:11:15;;;;;;;9.98;3.83;;;;;;;17.50;100.00;96076.28;5026096;28;24494;-76
2023/07/11 03:13:41;;;;;;;4.93;4.15;;;;;;;17.35;100.00;96078.41;5030338;28;24821;-75
2023/07/11 03:16:07;;;;;;;6.50;4.40;;;;;;;17.49;100.00;96077.22;5032394;28;24463;-75
2023/07/11 03:18:34;;;;;;;4.75;4.05;;;;;;;17.46;100.00;96074.03;5031598;28;24447;-76
2023/07/11 03:21:02;;;;;;;5.35;3.80;;;;;;;17.41;100.00;96070.03;5015290;28;24440;-75
2023/07/11 03:23:31;;;;;;;4.68;4.07;;;;;;;17.35;100.00;96064.47;5035780;28;24444;-74
2023/07/11 03:25:57;;;;;;;5.43;4.13;;;;;;;17.28;100.00;96063.34;5024137;28;24436;-76
2023/07/11 03:28:24;;;;;;;5.28;4.40;;;;;;;17.22;100.00;96063.88;5039441;28;24439;-75
2023/07/11 03:30:51;;;;;;;5.27;4.60;;;;;;;17.24;100.00;96057.53;5022216;28;24439;-76
2023/07/11 03:33:17;;;;;;;9.23;4.70;;;;;;;17.07;100.00;96055.53;5031646;28;24496;-76
2023/07/11 03:35:48;;;;;;;4.18;3.78;;;;;;;17.13;100.00;96053.22;5021516;28;24455;-75
2023/07/11 03:38:14;;;;;;;5.83;4.10;;;;;;;17.07;100.00;96055.53;5020443;28;24492;-75
2023/07/11 03:40:42;;;;;;;11.02;4.50;;;;;;;17.05;100.00;96060.06;5023272;28;24455;-75
2023/07/11 03:43:09;;;;;;;5.95;4.18;;;;;;;17.13;100.00;96055.00;5035612;28;25023;-75
2023/07/11 03:45:35;;;;;;;4.90;4.40;;;;;;;17.15;100.00;96051.28;5033332;28;24438;-75
2023/07/11 03:48:02;;;;;;;8.93;4.45;;;;;;;17.04;100.00;96048.75;5028281;28;24436;-76
2023/07/11 03:50:28;;;;;;;6.80;5.00;;;;;;;16.89;100.00;96056.09;5032407;28;24443;-76
2023/07/11 03:52:55;;;;;;;5.43;4.68;;;;;;;16.78;100.00;96057.97;5029706;28;24436;-76
2023/07/11 03:55:21;;;;;;;8.93;4.80;;;;;;;16.84;100.00;96054.84;5024295;28;24538;-75
2023/07/11 03:57:49;;;;;;;5.53;4.60;;;;;;;16.92;100.00;96049.78;5028243;28;25046;-76
2023/07/11 04:00:16;;;;;;;6.80;4.90;;;;;;;16.98;100.00;96043.22;5027059;28;24436;-76
2023/07/11 04:02:42;;;;;;;6.20;4.95;;;;;;;17.05;100.00;96044.34;5020877;28;24443;-74
2023/07/11 04:05:09;;;;;;;6.05;4.43;;;;;;;17.09;100.00;96040.50;5020793;28;24452;-76
2023/07/11 04:07:35;;;;;;;5.55;4.63;;;;;;;17.09;100.00;96049.22;5022847;28;24788;-76
2023/07/11 04:10:02;;;;;;;5.10;4.60;;;;;;;17.03;100.00;96041.88;5031297;28;24466;-74
2023/07/11 04:12:28;;;;;;;6.18;4.63;;;;;;;16.99;100.00;96043.09;5032601;28;24440;-75
2023/07/11 04:14:56;;;;;;;6.93;4.40;;;;;;;17.04;100.00;96048.75;5031937;28;24439;-76
2023/07/11 04:17:22;;;;;;;6.50;4.43;;;;;;;17.15;100.00;96042.63;5026750;28;25094;-76
2023/07/11 04:19:49;;;;;;;5.18;4.68;;;;;;;17.22;100.00;96042.94;5027470;28;24436;-75
2023/07/11 04:22:16;;;;;;;6.15;4.75;;;;;;;17.30;100.00;96048.34;5024175;28;24873;-76
2023/07/11 04:24:42;;;;;;;5.85;4.30;;;;;;;17.40;100.00;96038.75;5022899;28;24431;-76
2023/07/11 04:27:09;;;;;;;9.30;4.88;;;;;;;17.50;100.00;96047.47;5026981;28;25031;-75
2023/07/11 04:29:36;;;;;;;4.63;4.22;;;;;;;17.65;100.00;96048.78;5021085;28;24849;-75
2023/07/11 04:32:06;;;;;;;5.30;4.00;;;;;;;17.78;100.00;96048.56;5031643;28;24980;-74
2023/07/11 04:34:32;;;;;;;8.75;4.20;;;;;;;17.89;100.00;96045.00;5027883;28;25036;-75
2023/07/11 04:36:58;;;;;;;5.93;4.45;;;;;;;18.01;100.00;96048.31;5012183;28;24460;-74
2023/07/11 04:39:25;;;;;;;5.70;4.43;;;;;;;18.06;100.00;96044.34;5026076;28;24476;-75
2023/07/11 04:41:51;;;;;;;6.43;4.70;;;;;;;18.13;100.00;96040.22;5020748;28;24439;-76
2023/07/11 04:44:18;;;;;;;7.40;4.57;;;;;;;18.24;100.00;96039.25;5019927;28;24439;-76
2023/07/11 04:46:44;;;;;;;5.78;4.75;;;;;;;18.34;100.00;96044.50;5015995;28;24443;-76
2023/07/11 04:49:12;;;;;;;6.32;4.47;;;;;;;18.39;100.00;96044.91;5034608;28;24463;-76
2023/07/11 04:51:38;;;;;;;4.57;4.15;;;;;;;18.29;100.00;96042.31;5034579;28;25063;-75
2023/07/11 04:54:05;;;;;;;9.90;4.40;;;;;;;18.35;100.00;96038.28;5027158;28;24526;-76
2023/07/11 04:56:31;;;;;;;9.60;4.70;;;;;;;18.31;100.00;96050.00;5028733;28;24463;-76
2023/07/11 04:58:59;;;;;;;7.43;4.13;;;;;;;18.33;100.00;96042.84;5033263;28;24986;-75
2023/07/11 05:01:26;;;;;;;6.43;4.30;;;;;;;18.47;100.00;96036.38;5032092;28;24482;-76
2023/07/11 05:03:52;;;;;;;9.18;4.82;;;;;;;18.52;100.00;96037.59;5029073;28;25011;-75
2023/07/11 05:06:20;;;;;;;6.03;4.97;;;;;;;18.52;100.00;96034.97;5016899;28;25013;-75
2023/07/11 05:08:47;;;;;;;6.43;4.32;;;;;;;18.66;100.00;96032.91;5022768;28;24810;-76
2023/07/11 05:11:16;;;;;;;6.43;4.55;;;;;;;18.89;100.00;96031.66;5036145;28;24482;-76
2023/07/11 05:13:44;;;;;;;6.40;5.00;;;;;;;18.98;100.00;96022.09;5024534;28;24490;-76
2023/07/11 05:16:13;;;;;;;7.70;4.80;;;;;;;18.97;100.00;96018.66;5033165;28;24455;-75
2023/07/11 05:18:40;;;;;;;8.27;4.55;;;;;;;19.00;100.00;96021.00;5029942;28;24442;-75
2023/07/11 05:21:08;;;;;;;6.75;5.00;;;;;;;19.12;100.00;96011.16;5018062;28;24444;-75
2023/07/11 05:23:37;;;;;;;8.68;5.20;;;;;;;19.27;100.00;96016.78;5028814;28;24482;-75
2023/07/11 05:26:04;;;;;;;10.77;4.70;;;;;;;19.32;100.00;96019.81;5022430;28;24440;-75
2023/07/11 05:28:31;;;;;;;6.32;4.90;;;;;;;19.32;100.00;96004.06;5029856;28;24827;-75
2023/07/11 05:31:00;;;;;;;7.07;4.75;;;;;;;19.27;100.00;96016.78;5035017;28;24485;-75
2023/07/11 05:33:26;;;;;;;7.07;4.88;;;;;;;19.30;100.00;96009.44;5035986;28;24981;-75
2023/07/11 05:35:57;;;;;;;7.35;4.80;;;;;;;19.39;100.00;96005.09;5025504;28;24546;-75
2023/07/11 05:38:24;;;;;;;7.22;4.50;;;;;;;19.48;100.00;96008.69;5027053;28;24890;-75
2023/07/11 05:40:52;;;;;;;6.25;5.10;;;;;;;19.55;100.00;96012.38;5033445;28;24439;-74
2023/07/11 05:43:18;;;;;;;6.97;4.47;;;;;;;19.71;100.00;96009.13;5026794;28;25008;-74
2023/07/11 05:45:45;;;;;;;10.90;4.88;;;;;;;19.66;100.00;96006.13;5032518;28;24566;-77
2023/07/11 05:48:11;;;;;;;11.05;4.70;;;;;;;19.81;100.00;96002.03;5040393;28;24435;-78
2023/07/11 05:50:38;;;;;;;10.13;5.10;;;;;;;19.88;100.00;96000.47;5039881;28;24828;-78
2023/07/11 05:53:04;;;;;;;11.43;4.90;;;;;;;19.77;100.00;95998.88;5033152;28;25000;-78
2023/07/11 05:55:30;;;;;;;7.53;4.70;;;;;;;19.74;100.00;95993.09;5033783;28;24457;-78
2023/07/11 05:57:58;;;;;;;7.82;4.68;;;;;;;19.80;100.00;95995.97;5034986;28;25038;-77
2023/07/11 06:00:25;;;;;;;7.45;4.85;;;;;;;20.02;100.00;95992.09;5044128;28;24458;-77
2023/07/11 06:02:51;;;;;;;7.65;4.53;;;;;;;20.29;99.90;95987.72;5026481;28;24428;-77
2023/07/11 06:05:18;;;;;;;6.60;4.53;;;;;;;20.37;96.99;95987.78;5035282;28;24981;-78
2023/07/11 06:07:45;;;;;;;9.13;4.57;;;;;;;20.65;97.78;95988.53;5026879;28;25122;-77
2023/07/11 06:10:12;;;;;;;7.00;4.40;;;;;;;20.87;95.08;95989.84;5029586;28;24432;-75
2023/07/11 06:12:38;;;;;;;13.80;4.85;;;;;;;21.11;91.41;95983.09;5041171;28;25058;-76
2023/07/11 06:15:07;;;;;;;9.80;4.57;;;;;;;21.37;91.41;95991.81;5042959;28;24481;-78
2023/07/11 06:17:33;;;;;;;9.75;4.47;;;;;;;21.58;88.76;95985.28;5044816;28;24560;-77
2023/07/11 06:20:00;;;;;;;7.18;4.75;;;;;;;21.73;86.97;95989.81;5024776;28;24536;-78
2023/07/11 06:22:26;;;;;;;8.90;4.03;;;;;;;21.87;86.92;95980.44;5032796;28;24834;-78
2023/07/11 06:24:53;;;;;;;6.60;4.60;;;;;;;21.93;86.91;95985.09;5036054;28;24850;-78
2023/07/11 06:27:19;;;;;;;8.23;4.38;;;;;;;22.15;85.78;95978.41;5036452;28;24540;-76
2023/07/11 06:29:46;;;;;;;12.05;4.53;;;;;;;22.39;87.80;95969.66;5031068;28;24427;-76
2023/07/11 06:32:14;;;;;;;6.50;4.43;;;;;;;22.43;82.41;95975.44;5030280;28;24673;-76
2023/07/11 06:34:41;;;;;;;13.63;4.70;;;;;;;22.66;83.69;95971.16;5039370;28;24467;-76
2023/07/11 06:37:08;;;;;;;7.43;4.93;;;;;;;22.78;80.07;95968.19;5032691;28;24870;-76
2023/07/11 06:39:34;;;;;;;7.40;4.37;;;;;;;23.02;79.72;95969.97;5031479;28;24443;-77
2023/07/11 06:42:02;;;;;;;4.53;4.07;;;;;;;23.10;78.10;95965.53;5031696;28;24459;-78
2023/07/11 06:44:28;;;;;;;7.30;4.82;;;;;;;23.09;77.97;95974.41;5036474;28;24761;-78
2023/07/11 06:46:54;;;;;;;6.13;4.57;;;;;;;23.06;78.56;95974.75;5042634;28;24432;-77
2023/07/11 06:49:22;;;;;;;6.80;4.28;;;;;;;23.41;77.07;95972.69;5036052;28;24447;-78
2023/07/11 06:51:49;;;;;;;6.88;4.50;;;;;;;23.66;77.33;95968.13;5038381;28;24466;-77
2023/07/11 06:54:16;;;;;;;6.78;4.75;;;;;;;23.99;79.82;95971.47;5040539;28;24468;-77
2023/07/11 06:56:42;;;;;;;8.57;4.57;;;;;;;24.28;76.95;95967.28;5034016;28;24650;-78
2023/07/11 06:59:09;;;;;;;11.23;4.60;;;;;;;24.53;73.44;95967.94;5022976;28;24500;-77
2023/07/11 07:01:35;;;;;;;7.70;4.40;;;;;;;24.73;72.19;95960.31;5032696;28;24439;-77
2023/07/11 07:04:02;;;;;;;6.70;4.60;;;;;;;24.71;73.50;95967.63;5028504;28;24461;-77
2023/07/11 07:06:29;;;;;;;9.30;4.78;;;;;;;25.01;72.10;95969.31;5036725;28;24826;-77
2023/07/11 07:08:56;;;;;;;6.50;4.88;;;;;;;25.02;71.42;95963.00;5035570;28;24439;-77
2023/07/11 07:11:22;;;;;;;5.40;4.30;;;;;;;25.09;70.35;95961.28;5033083;28;24440;-77
2023/07/11 07:13:49;;;;;;;7.87;5.00;;;;;;;25.09;69.36;95953.34;5027872;28;24445;-77
2023/07/11 07:16:16;;;;;;;5.87;4.67;;;;;;;25.46;66.94;95956.94;5031068;28;24882;-78
2023/07/11 07:18:43;;;;;;;6.22;4.15;;;;;;;25.76;64.97;95959.53;5031940;28;24824;-78
2023/07/11 07:21:10;;;;;;;7.93;4.63;;;;;;;25.77;61.15;95951.41;5021175;28;24432;-78
2023/07/11 07:23:38;;;;;;;6.65;4.47;;;;;;;25.85;62.04;95955.00;5032124;28;24464;-78
2023/07/11 07:26:05;;;;;;;6.73;3.80;;;;;;;25.97;61.76;95956.16;5035762;28;24457;-78
2023/07/11 07:28:32;;;;;;;7.50;4.28;;;;;;;25.98;62.01;95955.13;5031261;28;24440;-78
2023/07/11 07:30:59;;;;;;;7.30;4.55;;;;;;;26.37;58.96;95951.25;5022725;28;24447;-78
2023/07/11 07:33:27;;;;;;;5.15;4.43;;;;;;;26.35;58.00;95948.75;5035291;28;24537;-78
2023/07/11 07:35:55;;;;;;;5.95;4.15;;;;;;;26.70;57.16;95946.25;5030075;28;24926;-78
2023/07/11 07:38:21;;;;;;;6.00;4.30;;;;;;;27.04;57.27;95950.78;5032651;28;24454;-78
2023/07/11 07:40:52;;;;;;;6.53;4.43;;;;;;;27.39;53.54;95953.47;5036608;28;25070;-78
2023/07/11 07:43:19;;;;;;;6.53;4.00;;;;;;;27.36;54.63;95944.03;5022179;28;24443;-77
2023/07/11 07:45:48;;;;;;;6.57;4.13;;;;;;;27.49;56.58;95938.78;5025429;28;24432;-78
2023/07/11 07:48:14;;;;;;;5.93;4.20;;;;;;;27.76;52.84;95943.44;5039006;28;24836;-78
2023/07/11 07:50:41;;;;;;;6.90;4.10;;;;;;;27.61;51.72;95943.53;5039353;28;24440;-78
2023/07/11 07:53:07;;;;;;;7.35;4.40;;;;;;;27.29;52.87;95929.88;5032705;28;26225;-77
2023/07/11 07:55:35;;;;;;;6.78;4.40;;;;;;;27.20;53.92;95929.22;5030328;28;24702;-78
2023/07/11 07:58:03;;;;;;;5.05;4.00;;;;;;;27.62;53.56;95937.19;5028745;28;24459;-78
2023/07/11 08:00:30;;;;;;;11.77;4.55;;;;;;;27.76;52.02;95930.13;5038453;28;24999;-77
2023/07/11 08:02:56;;;;;;;7.90;4.35;;;;;;;27.99;51.86;95927.94;5024616;28;24444;-77
2023/07/11 08:05:23;;;;;;;5.70;4.53;;;;;;;28.27;51.90;95929.63;5035545;28;24535;-77
2023/07/11 08:07:50;;;;;;;6.63;4.40;;;;;;;28.25;51.33;95919.16;5030298;28;24435;-77
2023/07/11 08:10:17;;;;;;;5.28;4.10;;;;;;;28.22;50.83;95917.75;5027996;28;24491;-78
2023/07/11 08:12:45;;;;;;;6.13;4.00;;;;;;;28.44;51.25;95917.56;5027914;28;24436;-76
2023/07/11 08:15:13;;;;;;;8.27;4.97;;;;;;;28.32;51.22;95917.34;5037830;28;24495;-79
2023/07/11 08:17:42;;;;;;;5.78;4.07;;;;;;;28.36;50.86;95912.44;5030821;28;24813;-77
2023/07/11 08:20:09;;;;;;;6.13;4.43;;;;;;;28.56;51.44;95921.28;5021424;28;24458;-77
2023/07/11 08:22:36;;;;;;;7.57;4.67;;;;;;;28.80;50.80;95905.69;5034309;28;24439;-78
2023/07/11 08:25:02;;;;;;;7.57;4.40;;;;;;;29.20;50.13;95908.31;5029410;28;24998;-77
2023/07/11 08:27:28;;;;;;;8.00;4.65;;;;;;;29.14;49.59;95910.78;5031148;28;24491;-78
2023/07/11 08:29:55;;;;;;;6.47;4.68;;;;;;;29.06;49.92;95908.34;5029617;28;24859;-78
2023/07/11 08:32:23;;;;;;;6.97;4.70;;;;;;;28.95;50.74;95904.44;5043124;28;24478;-78
2023/07/11 08:34:49;;;;;;;6.80;4.60;;;;;;;29.18;49.86;95903.19;5040059;28;24446;-77
2023/07/11 08:37:16;;;;;;;7.63;4.60;;;;;;;29.21;50.59;95904.63;5018092;28;24990;-78
2023/07/11 08:39:42;;;;;;;8.23;4.63;;;;;;;29.26;51.48;95892.31;5029700;28;25027;-78
2023/07/11 08:42:18;;;;;;;8.93;4.80;;;;;;;29.21;52.14;95893.94;5028732;28;24764;-77
2023/07/11 08:44:53;;;;;;;7.97;4.90;;;;;;;28.91;54.68;95884.53;5014150;28;24950;-77
2023/07/11 08:47:24;;;;;;;5.63;4.90;;;;;;;28.71;57.27;95883.78;5026656;28;24442;-77
2023/07/11 08:49:55;;;;;;;9.50;4.80;;;;;;;28.66;56.88;95887.06;5029381;28;24435;-77
2023/07/11 08:52:23;;;;;;;11.47;5.17;;;;;;;28.72;57.48;95877.41;5026860;28;24436;-78
2023/07/11 08:54:56;;;;;;;7.15;4.70;;;;;;;28.81;57.07;95883.34;5029537;28;24508;-77
2023/07/11 08:57:29;;;;;;;6.80;5.30;;;;;;;28.97;56.43;95885.56;5033710;28;24440;-77
2023/07/11 09:00:02;;;;;;;11.32;4.97;;;;;;;29.08;55.66;95879.63;5038129;28;24523;-78
2023/07/11 09:02:37;;;;;;;9.77;4.95;;;;;;;29.25;58.16;95879.97;5042765;28;24524;-78
2023/07/11 09:05:10;;;;;;;7.15;5.07;;;;;;;29.34;56.84;95873.38;5034604;28;24489;-78
2023/07/11 09:07:38;;;;;;;5.57;4.87;;;;;;;29.65;56.55;95874.50;5025668;28;24447;-78
2023/07/11 09:10:18;;;;;;;8.27;5.05;;;;;;;29.82;52.86;95870.31;5029606;28;24439;-77
2023/07/11 09:12:59;;;;;;;9.18;5.03;;;;;;;29.81;51.63;95870.53;5033244;28;25030;-78
2023/07/11 09:15:32;;;;;;;9.00;5.03;;;;;;;29.82;51.55;95864.97;5047867;28;24527;-78
2023/07/11 09:18:11;;;;;;;6.07;4.68;;;;;;;29.91;50.82;95862.88;5038153;28;24467;-78
2023/07/11 09:20:46;;;;;;;7.97;5.00;;;;;;;30.02;51.19;95856.84;5031531;28;24990;-79
2023/07/11 09:23:29;;;;;;;7.38;5.07;;;;;;;30.74;50.43;95845.78;5031969;28;24873;-78
2023/07/11 09:26:01;;;;;;;8.57;5.07;;;;;;;30.57;48.84;95845.53;5023960;28;24446;-79
2023/07/11 09:28:29;;;;;;;8.70;4.90;;;;;;;30.19;49.29;95841.16;5033298;28;24432;-76
2023/07/11 09:31:00;;;;;;;9.40;4.78;;;;;;;30.82;50.42;95834.84;5033605;28;25018;-76
2023/07/11 09:33:31;;;;;;;10.80;5.18;;;;;;;31.23;48.44;95839.53;5025041;28;24447;-76
2023/07/11 09:35:59;;;;;;;8.13;5.07;;;;;;;31.28;49.12;95826.28;5028265;28;24481;-76
2023/07/11 09:38:31;;;;;;;9.20;5.30;;;;;;;31.20;46.57;95828.47;5025716;28;24620;-76
2023/07/11 09:41:03;;;;;;;9.40;4.80;;;;;;;30.72;46.96;95829.16;5025445;28;24889;-76
2023/07/11 09:43:29;;;;;;;10.38;5.00;;;;;;;30.64;47.02;95832.13;5023381;28;24984;-76
2023/07/11 09:45:56;;;;;;;8.48;5.18;;;;;;;30.84;47.38;95830.09;5031811;28;24439;-76
2023/07/11 09:48:27;;;;;;;10.50;5.22;;;;;;;31.23;48.27;95828.84;5026435;28;24436;-76
2023/07/11 09:51:03;;;;;;;6.95;5.13;;;;;;;31.60;45.48;95834.16;5026694;28;24479;-76
2023/07/11 09:53:31;;;;;;;7.68;4.55;;;;;;;31.59;47.01;95829.84;5037555;28;24439;-77
2023/07/11 09:56:00;;;;;;;7.75;5.20;;;;;;;31.90;45.90;95828.00;5026673;28;24437;-76
2023/07/11 09:58:28;;;;;;;7.30;4.93;;;;;;;31.70;45.30;95829.06;5034101;28;24475;-77
2023/07/11 10:00:59;;;;;;;6.07;5.00;;;;;;;31.99;44.42;95821.28;5030596;28;24711;-76
2023/07/11 10:03:28;;;;;;;9.27;5.37;;;;;;;32.34;49.96;95818.66;5030437;28;24536;-76
2023/07/11 10:05:56;;;;;;;7.00;4.82;;;;;;;32.44;44.51;95816.22;5019181;28;24440;-76
2023/07/11 10:08:24;;;;;;;13.47;5.47;;;;;;;31.91;43.60;95822.41;5016197;28;24439;-76
2023/07/11 10:10:53;;;;;;;7.97;5.07;;;;;;;31.67;45.16;95824.19;5026452;28;24431;-76
2023/07/11 10:13:21;;;;;;;7.07;4.80;;;;;;;31.72;46.26;95815.47;5020499;28;24442;-76
2023/07/11 10:15:48;;;;;;;7.70;4.95;;;;;;;31.89;46.16;95815.66;5036213;28;24454;-76
2023/07/11 10:18:20;;;;;;;6.53;5.00;;;;;;;31.60;44.77;95814.63;5020603;28;24444;-76
2023/07/11 10:20:48;;;;;;;7.80;4.72;;;;;;;31.01;46.06;95812.44;5030086;28;24439;-77
2023/07/11 10:23:21;;;;;;;8.40;5.28;;;;;;;30.94;46.60;95809.00;5034283;28;24482;-76
2023/07/11 10:25:52;;;;;;;6.13;4.65;;;;;;;30.99;48.10;95811.81;5014865;28;24471;-76
2023/07/11 10:28:26;;;;;;;6.47;5.22;;;;;;;31.00;47.78;95807.28;5033978;28;24516;-77
2023/07/11 10:30:54;;;;;;;8.00;5.10;;;;;;;31.04;48.76;95800.47;5030109;28;24438;-76
2023/07/11 10:33:25;;;;;;;8.82;5.05;;;;;;;31.35;47.66;95791.47;5030787;28;24459;-78
2023/07/11 10:35:56;;;;;;;10.10;4.60;;;;;;;31.31;48.37;95785.75;5030081;28;24435;-77
2023/07/11 10:38:31;;;;;;;9.38;4.78;;;;;;;31.23;47.93;95791.38;5026402;28;24614;-77
2023/07/11 10:41:01;;;;;;;10.77;5.47;;;;;;;31.03;47.76;95793.47;5040756;28;25087;-77
2023/07/11 10:43:30;;;;;;;8.55;5.13;;;;;;;31.22;46.58;95786.22;5037507;28;24975;-76
2023/07/11 10:46:02;;;;;;;9.80;5.55;;;;;;;30.84;47.79;95784.63;5031672;28;25000;-77
2023/07/11 10:48:38;;;;;;;6.90;5.00;;;;;;;30.66;47.83;95776.56;5030222;28;24442;-76
2023/07/11 10:51:08;;;;;;;10.35;5.30;;;;;;;30.54;48.47;95781.84;5033529;28;24432;-78
2023/07/11 10:53:41;;;;;;;7.63;5.05;;;;;;;30.29;49.23;95774.66;5040729;28;24440;-80
2023/07/11 10:56:13;;;;;;;8.52;4.85;;;;;;;30.21;49.44;95776.81;5026537;28;24444;-81
2023/07/11 10:58:40;;;;;;;8.15;4.85;;;;;;;30.38;50.27;95767.19;5020749;28;24501;-77
2023/07/11 11:01:16;;;;;;;8.67;4.90;;;;;;;30.45;49.02;95767.97;5020971;28;24479;-77
2023/07/11 11:03:45;;;;;;;5.80;4.75;;;;;;;30.54;48.88;95761.28;5038638;28;24447;-78
2023/07/11 11:06:27;;;;;;;5.95;4.68;;;;;;;30.57;49.42;95758.16;5028068;28;24436;-78
2023/07/11 11:09:03;;;;;;;9.30;5.75;;;;;;;30.33;49.32;95753.66;5025369;28;24439;-79
2023/07/11 11:11:37;;;;;;;6.93;4.85;;;;;;;30.31;50.08;95748.56;5021357;28;24444;-78
2023/07/11 11:14:11;;;;;;;12.10;5.35;;;;;;;30.43;49.90;95739.81;5038589;28;24439;-80
2023/07/11 11:16:46;;;;;;;9.88;5.30;;;;;;;30.68;48.96;95737.09;5027160;28;24464;-81
2023/07/11 11:19:22;;;;;;;11.18;4.95;;;;;;;30.78;48.62;95730.22;5027253;28;24447;-80
2023/07/11 11:21:54;;;;;;;9.50;5.40;;;;;;;30.76;48.54;95731.47;5039136;28;24435;-80
2023/07/11 11:24:41;;;;;;;7.55;5.30;;;;;;;30.85;48.95;95727.44;5028458;28;24468;-81
2023/07/11 11:27:23;;;;;;;7.82;5.07;;;;;;;31.12;48.41;95719.91;5039106;28;24435;-79
2023/07/11 11:29:58;;;;;;;9.43;4.82;;;;;;;31.51;44.97;95718.53;5038570;28;24431;-80
2023/07/11 11:32:30;;;;;;;10.88;5.32;;;;;;;31.96;46.39;95719.94;5040471;28;24439;-79
2023/07/11 11:35:16;;;;;;;12.60;5.00;;;;;;;32.12;45.00;95702.38;5030266;28;25084;-77